createdAt,value
2022-12-07T04:49:02.595Z,100368.84
2022-12-07T04:52:05.887Z,100368.84
2022-12-07T04:55:08.624Z,100376.56
2022-12-07T04:58:11.433Z,100376.41
2022-12-07T05:01:14.587Z,100376.31
2022-12-07T05:04:18.727Z,100372.84
2022-12-07T05:07:21.025Z,100378.72
2022-12-07T05:10:23.645Z,100374.28
2022-12-07T05:13:25.953Z,100364.59
2022-12-07T05:16:28.667Z,100365.56
2022-12-07T05:19:31.050Z,100364.91
2022-12-07T05:22:33.631Z,100368.41
2022-12-07T05:25:36.190Z,100371.84
2022-12-07T05:28:39.065Z,100379.63
2022-12-07T05:31:41.865Z,100365.06
2022-12-07T05:34:44.652Z,100364.22
2022-12-07T05:37:47.016Z,100346.06
2022-12-07T05:40:49.596Z,100349.28
2022-12-07T05:43:51.847Z,100352.59
2022-12-07T05:46:55.490Z,100352.59
2022-12-07T05:49:57.913Z,100349.78
2022-12-07T05:53:01.185Z,100350.59
2022-12-07T05:56:03.787Z,100361.09
2022-12-07T05:59:24.543Z,100356.81
2022-12-07T06:02:27.406Z,100359.91
2022-12-07T06:05:30.519Z,100367.03
2022-12-07T06:08:34.059Z,100363.56
2022-12-07T06:11:55.373Z,100358.53
2022-12-07T06:14:58.789Z,100369.00
2022-12-07T06:18:01.367Z,100364.53
2022-12-07T06:21:04.035Z,100361.81
2022-12-07T06:24:07.641Z,100358.28
2022-12-07T06:27:11.049Z,100356.69
2022-12-07T06:30:13.635Z,100363.69
2022-12-07T06:33:15.906Z,100373.28
2022-12-07T06:36:21.467Z,100367.03
2022-12-07T06:39:29.333Z,100366.03
2022-12-07T06:42:32.199Z,100372.75
2022-12-07T06:45:34.926Z,100378.75
2022-12-07T06:48:37.535Z,100370.97
2022-12-07T06:51:42.176Z,100377.88
2022-12-07T06:54:45.975Z,100375.28
2022-12-07T06:57:48.456Z,100376.78
2022-12-07T07:00:51.402Z,100382.44
2022-12-07T07:03:53.849Z,100377.97
2022-12-07T07:06:59.964Z,100375.97
2022-12-07T07:10:03.874Z,100377.50
2022-12-07T07:13:07.660Z,100374.00
2022-12-07T07:16:10.141Z,100370.38
2022-12-07T07:19:14.181Z,100369.72
2022-12-07T07:22:16.822Z,100373.03
2022-12-07T07:25:19.857Z,100377.06
2022-12-07T07:28:23.357Z,100383.81
2022-12-07T07:31:26.252Z,100382.00
2022-12-07T07:34:28.730Z,100381.50
2022-12-07T07:37:31.407Z,100393.00
2022-12-07T07:40:34.055Z,100381.78
2022-12-07T07:43:36.714Z,100383.06
2022-12-07T07:46:39.301Z,100377.38
2022-12-07T07:49:47.789Z,100376.13
2022-12-07T07:52:52.217Z,100377.69
2022-12-07T07:55:55.354Z,100370.94
2022-12-07T07:58:57.709Z,100378.56
2022-12-07T08:02:00.458Z,100370.53
2022-12-07T08:05:03.492Z,100380.84
2022-12-07T08:08:05.847Z,100379.72
2022-12-07T08:11:10.161Z,100371.53
2022-12-07T08:14:12.712Z,100382.69
2022-12-07T08:17:15.588Z,100396.34
2022-12-07T08:20:18.050Z,100386.50
2022-12-07T08:23:24.132Z,100392.28
2022-12-07T08:26:29.911Z,100391.47
2022-12-07T08:29:33.064Z,100384.97
2022-12-07T08:32:35.439Z,100392.56
2022-12-07T08:35:38.150Z,100392.41
2022-12-07T08:38:47.847Z,100401.94
2022-12-07T08:41:58.861Z,100401.56
2022-12-07T08:45:01.358Z,100401.28
2022-12-07T08:48:09.507Z,100402.72
2022-12-07T08:51:12.125Z,100402.56
2022-12-07T08:54:17.735Z,100400.53
2022-12-07T08:57:20.182Z,100391.59
2022-12-07T09:00:23.578Z,100391.66
2022-12-07T09:03:26.121Z,100398.38
2022-12-07T09:06:29.895Z,100390.84
2022-12-07T09:09:32.333Z,100398.25
2022-12-07T09:12:35.307Z,100406.31
2022-12-07T09:15:37.878Z,100393.41
2022-12-07T09:18:40.557Z,100389.56
2022-12-07T09:21:42.944Z,100378.91
2022-12-07T09:24:46.580Z,100385.56
2022-12-07T09:27:48.956Z,100379.16
2022-12-07T09:34:14.491Z,100378.97
2022-12-07T09:37:17.044Z,100379.81
2022-12-07T09:40:21.329Z,100375.16
2022-12-07T09:43:26.117Z,100374.00
2022-12-07T09:46:29.953Z,100369.78
2022-12-07T09:49:33.237Z,100367.00
2022-12-07T09:52:39.235Z,100367.53
2022-12-07T09:55:43.999Z,100355.44
2022-12-07T09:58:47.598Z,100362.28
2022-12-07T10:01:51.279Z,100357.19
2022-12-07T10:04:54.417Z,100352.84
2022-12-07T10:07:57.050Z,100348.41
2022-12-07T10:11:02.098Z,100353.06
2022-12-07T10:14:14.805Z,100351.00
2022-12-07T10:17:42.455Z,100344.84
2022-12-07T10:20:47.080Z,100345.87
2022-12-07T10:24:23.153Z,100348.22
2022-12-07T10:27:33.370Z,100346.69
2022-12-07T10:30:49.918Z,100348.75
2022-12-07T10:33:57.631Z,100339.44
2022-12-07T10:37:17.342Z,100339.00
2022-12-07T10:40:44.884Z,100323.41
2022-12-07T10:43:51.055Z,100328.66
2022-12-07T10:47:24.789Z,100323.62
2022-12-07T10:51:03.030Z,100332.37
2022-12-07T10:54:12.001Z,100334.00
2022-12-07T10:57:45.608Z,100330.91
2022-12-07T11:01:14.048Z,100329.59
2022-12-07T11:04:19.848Z,100335.63
2022-12-07T11:07:31.193Z,100325.31
2022-12-07T11:10:58.782Z,100328.37
2022-12-07T11:14:41.839Z,100328.13
2022-12-07T11:17:44.314Z,100320.38
2022-12-07T11:21:02.923Z,100317.44
2022-12-07T11:24:18.201Z,100313.62
2022-12-07T11:27:45.498Z,100311.16
2022-12-07T11:31:22.197Z,100316.41
2022-12-07T11:34:32.691Z,100311.53
2022-12-07T11:40:50.462Z,100310.38
2022-12-07T11:44:35.626Z,100312.47
2022-12-07T11:48:01.236Z,100304.53
2022-12-07T11:51:05.565Z,100310.56
2022-12-07T11:54:32.971Z,100312.59
2022-12-07T11:57:45.325Z,100322.53
2022-12-07T12:00:54.699Z,100321.75
2022-12-07T12:04:12.834Z,100319.94
2022-12-07T12:11:01.306Z,100315.25
2022-12-07T12:14:46.879Z,100302.31
2022-12-07T12:18:32.359Z,100293.63
2022-12-07T12:21:36.930Z,100282.47
2022-12-07T12:24:42.466Z,100276.09
2022-12-07T12:27:49.012Z,100268.69
2022-12-07T12:31:29.560Z,100266.25
2022-12-07T12:34:54.112Z,100268.44
2022-12-07T12:38:16.737Z,100262.44
2022-12-07T12:41:46.813Z,100250.19
2022-12-07T12:45:27.067Z,100256.12
2022-12-07T12:48:39.567Z,100255.41
2022-12-07T12:51:57.869Z,100253.75
2022-12-07T12:55:19.915Z,100252.75
2022-12-07T12:58:31.268Z,100251.78
2022-12-07T13:01:37.253Z,100261.81
2022-12-07T13:04:53.270Z,100266.84
2022-12-07T13:07:59.585Z,100267.16
2022-12-07T13:11:31.838Z,100261.84
2022-12-07T13:14:54.958Z,100269.22
2022-12-07T13:18:01.552Z,100267.81
2022-12-07T13:21:26.709Z,100270.28
2022-12-07T13:24:33.321Z,100266.47
2022-12-07T13:27:39.938Z,100273.28
2022-12-07T13:31:24.303Z,100276.06
2022-12-07T13:34:38.874Z,100271.50
2022-12-07T13:37:41.696Z,100278.50
2022-12-07T13:40:59.966Z,100278.91
2022-12-07T13:44:14.906Z,100279.09
2022-12-07T13:47:19.476Z,100282.97
2022-12-07T13:50:26.032Z,100284.25
2022-12-07T13:53:31.774Z,100289.09
2022-12-07T13:56:36.623Z,100291.87
2022-12-07T13:59:48.204Z,100295.09
2022-12-07T14:03:02.993Z,100298.56
2022-12-07T14:06:16.673Z,100291.72
2022-12-07T14:09:23.499Z,100293.25
2022-12-07T14:12:27.471Z,100293.34
2022-12-07T14:15:34.207Z,100287.78
2022-12-07T14:18:36.903Z,100288.53
2022-12-07T14:21:39.304Z,100287.87
2022-12-07T14:24:44.766Z,100296.25
2022-12-07T14:28:45.665Z,100293.75
2022-12-07T14:31:48.822Z,100303.38
2022-12-07T14:35:00.872Z,100292.50
2022-12-07T14:38:03.843Z,100295.50
2022-12-07T14:41:33.089Z,100291.84
2022-12-07T14:44:36.159Z,100301.37
2022-12-07T14:54:28.016Z,100312.13
2022-12-07T14:57:30.638Z,100312.22
2022-12-07T15:00:34.021Z,100310.84
2022-12-07T15:03:39.023Z,100316.44
2022-12-07T15:06:44.828Z,100318.53
2022-12-07T15:09:48.566Z,100321.28
2022-12-07T15:12:51.505Z,100321.38
2022-12-07T15:15:55.304Z,100328.06
2022-12-07T15:19:26.734Z,100329.41
2022-12-07T15:22:21.418Z,100325.91
2022-12-07T15:25:23.778Z,100337.56
2022-12-07T15:28:26.713Z,100342.84
2022-12-07T15:31:54.553Z,100339.53
2022-12-07T15:34:52.435Z,100343.75
2022-12-07T15:37:54.740Z,100342.37
2022-12-07T15:40:57.655Z,100337.81
2022-12-07T15:44:18.808Z,100348.50
2022-12-07T15:47:21.718Z,100351.25
2022-12-07T15:50:24.243Z,100361.59
2022-12-07T15:53:26.850Z,100355.00
2022-12-07T15:56:29.133Z,100363.47
2022-12-07T15:59:31.704Z,100352.56
2022-12-07T16:02:39.531Z,100362.47
2022-12-07T16:05:42.649Z,100362.47
2022-12-07T16:08:46.232Z,100365.38
2022-12-07T16:11:48.766Z,100363.97
2022-12-07T16:14:51.033Z,100367.62
2022-12-07T16:17:54.481Z,100368.41
2022-12-07T16:20:56.887Z,100362.47
2022-12-07T16:24:00.134Z,100356.50
2022-12-07T16:27:02.428Z,100352.50
2022-12-07T16:30:05.963Z,100356.97
2022-12-07T16:33:08.486Z,100361.03
2022-12-07T16:36:12.802Z,100363.16
2022-12-07T16:39:16.092Z,100362.09
2022-12-07T16:42:18.593Z,100364.97
2022-12-07T16:45:21.316Z,100373.53
2022-12-07T16:48:24.722Z,100369.44
